createdAt,value
2017-12-02T07:02:17.658Z,10.82
2017-12-02T07:04:46.000Z,13.43
2017-12-02T07:07:13.946Z,13.57
2017-12-02T07:09:44.913Z,12.45
2017-12-02T07:12:12.907Z,11.70
2017-12-02T07:14:41.247Z,13.60
2017-12-02T07:17:09.360Z,13.10
2017-12-02T07:19:40.492Z,14.55
2017-12-02T07:22:08.419Z,13.65
2017-12-02T07:24:36.709Z,13.25
2017-12-02T07:27:05.482Z,13.35
2017-12-02T07:29:35.051Z,13.85
2017-12-02T07:32:03.495Z,12.80
2017-12-02T07:34:31.920Z,14.48
2017-12-02T07:36:59.997Z,14.80
2017-12-02T07:39:28.463Z,14.20
2017-12-02T07:41:56.363Z,14.75
2017-12-02T07:44:45.431Z,14.82
2017-12-02T07:54:56.741Z,13.57
2017-12-02T07:57:24.839Z,14.15
2017-12-02T08:00:02.918Z,12.60
2017-12-02T08:02:42.666Z,13.68
2017-12-02T08:05:11.360Z,12.70
2017-12-02T08:07:39.596Z,13.43
2017-12-02T08:10:18.568Z,13.70
2017-12-02T08:12:47.101Z,13.18
2017-12-02T08:15:17.581Z,13.98
2017-12-02T08:17:46.919Z,13.48
2017-12-02T08:20:15.619Z,15.63
2017-12-02T08:22:46.075Z,15.93
2017-12-02T08:25:31.465Z,13.52
2017-12-02T08:30:39.966Z,10.95
2017-12-02T08:33:08.883Z,12.60
2017-12-02T09:25:49.940Z,7.30
2017-12-02T09:28:29.434Z,6.23
2017-12-02T09:42:15.216Z,8.80
2017-12-02T09:53:54.030Z,5.60
2017-12-02T10:02:28.355Z,8.97
2017-12-02T10:08:46.871Z,9.40
2017-12-02T10:11:15.568Z,9.97
2017-12-02T10:16:22.250Z,9.60
2017-12-02T10:21:29.777Z,9.23
2017-12-02T10:26:46.916Z,8.23
2017-12-02T10:29:15.779Z,9.47
2017-12-02T10:31:47.728Z,8.73
2017-12-02T10:34:15.736Z,8.10
2017-12-02T10:36:44.034Z,8.00
2017-12-02T10:39:12.998Z,9.30
2017-12-02T10:41:41.565Z,9.13
2017-12-02T10:44:09.586Z,9.87
2017-12-02T10:46:38.294Z,9.70
2017-12-02T10:49:07.204Z,11.10
2017-12-02T10:51:37.110Z,10.80
2017-12-02T10:54:07.874Z,13.17
2017-12-02T10:56:36.898Z,11.47
2017-12-02T10:59:06.984Z,12.20
2017-12-02T11:01:35.243Z,9.73
2017-12-02T11:04:07.707Z,8.83
2017-12-02T11:06:37.232Z,9.13
2017-12-02T11:09:06.662Z,9.70
2017-12-02T11:11:35.299Z,9.47
2017-12-02T11:14:04.663Z,8.03
2017-12-02T11:16:34.188Z,9.27
2017-12-02T11:19:13.666Z,8.40
2017-12-02T11:21:43.282Z,8.97
2017-12-02T11:24:14.338Z,8.83
2017-12-02T11:29:23.002Z,7.97
